createdAt,value
2022-09-11T00:01:19.764Z,14.80
2022-09-11T00:04:07.649Z,14.80
2022-09-11T00:06:55.792Z,14.80
2022-09-11T00:09:43.559Z,14.80
2022-09-11T00:12:33.436Z,14.80
2022-09-11T00:15:21.893Z,14.80
2022-09-11T00:18:10.355Z,14.80
2022-09-11T00:20:59.243Z,15.30
2022-09-11T00:23:49.885Z,14.80
2022-09-11T00:26:37.549Z,14.70
2022-09-11T00:29:27.162Z,14.70
2022-09-11T00:32:19.012Z,14.70
2022-09-11T00:35:07.585Z,14.60
2022-09-11T00:37:55.420Z,14.50
2022-09-11T00:40:46.443Z,14.80
2022-09-11T00:43:49.396Z,14.60
2022-09-11T00:46:40.961Z,14.60
2022-09-11T00:49:30.711Z,14.60
2022-09-11T00:52:19.839Z,14.60
2022-09-11T00:55:09.407Z,14.60
2022-09-11T00:57:59.302Z,14.50
2022-09-11T01:00:48.237Z,14.50
2022-09-11T01:03:37.652Z,14.40
2022-09-11T01:06:25.649Z,14.40
2022-09-11T01:09:13.761Z,14.40
2022-09-11T01:12:07.088Z,14.40
2022-09-11T01:14:57.035Z,14.30
2022-09-11T01:17:50.836Z,14.30
2022-09-11T01:20:48.276Z,14.40
2022-09-11T01:23:46.386Z,14.30
2022-09-11T01:26:56.237Z,14.30
2022-09-11T01:29:47.616Z,14.40
2022-09-11T01:32:37.760Z,14.30
2022-09-11T01:35:27.441Z,14.30
2022-09-11T01:38:17.792Z,14.30
2022-09-11T01:41:08.336Z,14.30
2022-09-11T01:43:58.422Z,14.30
2022-09-11T01:46:50.179Z,14.40
2022-09-11T01:49:40.035Z,14.30
2022-09-11T01:52:30.581Z,14.30
2022-09-11T01:55:20.621Z,14.20
2022-09-11T01:58:11.031Z,14.30
2022-09-11T02:01:04.761Z,14.20
2022-09-11T02:03:57.263Z,14.20
2022-09-11T02:06:48.505Z,14.30
2022-09-11T02:09:41.103Z,14.20
2022-09-11T02:12:31.218Z,14.20
2022-09-11T02:15:19.438Z,14.20
2022-09-11T02:18:11.261Z,14.10
2022-09-11T02:21:00.433Z,14.20
2022-09-11T02:23:47.768Z,14.10
2022-09-11T02:26:39.292Z,14.10
2022-09-11T02:29:27.293Z,13.70
2022-09-11T02:32:15.290Z,14.10
2022-09-11T02:35:03.609Z,14.10
2022-09-11T02:37:57.331Z,14.10
2022-09-11T02:40:49.074Z,14.10
2022-09-11T02:43:45.606Z,14.00
2022-09-11T02:46:48.468Z,14.00
2022-09-11T02:49:41.116Z,13.90
2022-09-11T02:52:37.424Z,14.00
2022-09-11T02:55:31.913Z,14.10
2022-09-11T02:58:24.258Z,14.00
2022-09-11T03:01:12.273Z,14.00
2022-09-11T03:04:01.364Z,14.00
2022-09-11T03:06:50.158Z,14.00
2022-09-11T03:09:39.934Z,14.00
2022-09-11T03:12:36.782Z,14.00
2022-09-11T03:15:24.324Z,14.10
2022-09-11T03:18:16.030Z,14.10
2022-09-11T03:21:05.069Z,14.10
2022-09-11T03:23:52.947Z,14.20
2022-09-11T03:26:41.336Z,14.10
2022-09-11T03:29:35.335Z,14.00
2022-09-11T03:32:23.046Z,14.00
2022-09-11T03:35:11.560Z,14.00
2022-09-11T03:37:59.359Z,14.00
2022-09-11T03:40:47.909Z,14.00
2022-09-11T03:43:35.631Z,12.30
2022-09-11T03:46:25.772Z,14.00
2022-09-11T03:49:13.369Z,14.10
2022-09-11T03:52:01.568Z,14.10
2022-09-11T03:54:49.312Z,14.00
2022-09-11T03:57:37.648Z,14.10
2022-09-11T04:00:26.175Z,14.10
2022-09-11T04:03:19.468Z,14.00
2022-09-11T04:06:08.641Z,14.00
2022-09-11T04:08:57.387Z,14.00
2022-09-11T04:11:51.003Z,13.90
2022-09-11T04:14:46.117Z,13.80
2022-09-11T04:17:33.607Z,13.90
2022-09-11T04:20:23.210Z,13.80
2022-09-11T04:23:10.881Z,13.80
2022-09-11T04:25:58.499Z,13.80
2022-09-11T04:28:46.529Z,13.80
2022-09-11T04:31:36.594Z,14.00
2022-09-11T04:34:24.753Z,13.70
2022-09-11T04:37:14.447Z,13.70
2022-09-11T04:40:02.904Z,13.60
2022-09-11T04:42:52.271Z,13.60
2022-09-11T04:45:41.481Z,13.60
2022-09-11T04:48:31.347Z,13.50
2022-09-11T04:51:22.412Z,13.50
2022-09-11T04:54:14.435Z,13.40
2022-09-11T04:57:02.978Z,13.40
2022-09-11T04:59:51.798Z,13.40
2022-09-11T05:02:40.778Z,15.30
2022-09-11T05:05:29.531Z,13.40
2022-09-11T05:08:19.117Z,13.30
2022-09-11T05:11:13.647Z,13.10
2022-09-11T05:14:01.292Z,13.30
2022-09-11T05:16:53.127Z,13.30
2022-09-11T05:19:44.900Z,13.40
2022-09-11T05:22:32.659Z,13.20
2022-09-11T05:25:25.435Z,13.20
2022-09-11T05:28:14.720Z,13.30
2022-09-11T05:31:02.887Z,13.30
2022-09-11T05:33:52.154Z,13.20
2022-09-11T05:36:41.555Z,13.20
2022-09-11T05:39:30.139Z,13.20
2022-09-11T05:42:20.560Z,13.30
2022-09-11T05:45:13.896Z,13.30
2022-09-11T05:48:03.586Z,13.30
2022-09-11T05:50:55.307Z,13.20
2022-09-11T05:53:46.246Z,13.30
2022-09-11T05:56:34.711Z,13.30
2022-09-11T05:59:27.337Z,13.30
2022-09-11T06:02:16.519Z,13.30
2022-09-11T06:05:10.492Z,14.00
2022-09-11T06:07:58.809Z,13.50
2022-09-11T06:10:47.938Z,13.60
2022-09-11T06:13:39.176Z,13.50
2022-09-11T06:16:29.434Z,13.50
2022-09-11T06:19:21.818Z,13.70
2022-09-11T06:22:10.586Z,13.70
2022-09-11T06:25:04.450Z,13.70
2022-09-11T06:27:52.256Z,13.80
2022-09-11T06:30:45.878Z,13.80
2022-09-11T06:33:34.800Z,13.60
2022-09-11T06:36:26.799Z,14.00
2022-09-11T06:39:16.564Z,13.70
2022-09-11T06:42:04.391Z,13.60
2022-09-11T06:44:56.080Z,13.70
2022-09-11T06:47:45.181Z,13.90
2022-09-11T06:50:40.304Z,13.70
2022-09-11T06:53:29.917Z,13.80
2022-09-11T06:56:18.105Z,13.90
2022-09-11T06:59:06.859Z,13.90
2022-09-11T07:01:55.805Z,14.00
2022-09-11T07:04:47.711Z,14.10
2022-09-11T07:07:36.309Z,14.20
2022-09-11T07:10:26.126Z,14.20
2022-09-11T07:13:19.245Z,14.30
2022-09-11T07:16:12.767Z,14.20
2022-09-11T07:19:04.129Z,14.30
2022-09-11T07:21:52.963Z,14.40
2022-09-11T07:24:42.046Z,14.50
2022-09-11T07:27:32.049Z,14.40
2022-09-11T07:30:21.323Z,14.60
2022-09-11T07:33:12.569Z,14.70
2022-09-11T07:36:01.184Z,14.70
2022-09-11T07:38:49.845Z,14.80
2022-09-11T07:41:40.077Z,14.80
2022-09-11T07:44:36.135Z,14.90
2022-09-11T07:47:23.514Z,15.00
2022-09-11T07:50:13.432Z,15.10
2022-09-11T07:53:02.286Z,15.10
2022-09-11T07:55:50.534Z,15.10
2022-09-11T07:58:39.750Z,14.60
2022-09-11T08:01:30.787Z,15.60
2022-09-11T08:04:18.761Z,15.60
2022-09-11T08:07:07.033Z,15.60
2022-09-11T08:10:23.410Z,15.80
2022-09-11T08:13:09.434Z,15.60
2022-09-11T08:15:58.200Z,15.70
2022-09-11T08:18:48.293Z,15.70
2022-09-11T08:21:37.119Z,15.80
2022-09-11T08:24:24.987Z,15.90
2022-09-11T08:27:16.213Z,16.00
2022-09-11T08:30:07.254Z,16.00
2022-09-11T08:32:55.288Z,15.90
2022-09-11T08:35:45.559Z,16.10
2022-09-11T08:38:36.455Z,16.80
2022-09-11T08:41:36.627Z,16.40
2022-09-11T08:44:26.310Z,16.30
2022-09-11T08:47:22.552Z,16.60
2022-09-11T08:50:15.142Z,16.50
2022-09-11T08:53:04.434Z,16.50
2022-09-11T08:55:59.819Z,16.60
2022-09-11T08:58:53.097Z,16.60
2022-09-11T09:01:47.481Z,16.80
2022-09-11T09:04:45.739Z,16.80
2022-09-11T09:07:40.096Z,16.60
2022-09-11T09:10:35.839Z,16.80
2022-09-11T09:13:30.564Z,16.90
2022-09-11T09:16:25.315Z,16.90
2022-09-11T09:19:16.380Z,16.90
2022-09-11T09:22:07.525Z,17.10
2022-09-11T09:25:00.566Z,17.30
2022-09-11T09:27:51.408Z,17.60
2022-09-11T09:30:44.192Z,17.80
2022-09-11T09:33:34.748Z,17.80
2022-09-11T09:36:32.700Z,17.20
2022-09-11T09:39:23.414Z,17.80
2022-09-11T09:42:29.816Z,17.90
2022-09-11T09:45:28.096Z,18.00
2022-09-11T09:48:15.423Z,18.10
2022-09-11T09:51:06.889Z,18.30
2022-09-11T09:53:59.087Z,18.50
2022-09-11T09:56:53.406Z,18.60
2022-09-11T09:59:42.672Z,18.50
2022-09-11T10:02:42.440Z,18.50
2022-09-11T10:05:31.833Z,18.50
2022-09-11T10:08:31.626Z,18.60
2022-09-11T10:11:29.343Z,18.70
2022-09-11T10:14:49.181Z,18.90
2022-09-11T10:17:33.098Z,19.20
2022-09-11T10:20:27.084Z,19.30
2022-09-11T10:23:24.468Z,19.40
2022-09-11T10:26:19.221Z,19.20
2022-09-11T10:29:10.103Z,18.90
2022-09-11T10:31:58.604Z,18.90
2022-09-11T10:34:47.641Z,18.70
2022-09-11T10:37:36.860Z,18.70
2022-09-11T10:40:26.479Z,18.70
2022-09-11T10:43:25.456Z,19.70
2022-09-11T10:46:28.966Z,18.50
2022-09-11T10:49:18.958Z,18.70
2022-09-11T10:52:18.921Z,18.60
2022-09-11T10:55:13.122Z,18.50
2022-09-11T10:58:05.460Z,18.60
2022-09-11T11:00:53.471Z,18.60
2022-09-11T11:03:40.884Z,18.80
2022-09-11T11:06:40.603Z,19.00
2022-09-11T11:09:34.827Z,19.10
2022-09-11T11:12:32.692Z,19.20
2022-09-11T11:15:30.256Z,19.10
2022-09-11T11:18:28.093Z,19.00
2022-09-11T11:21:24.850Z,19.00
2022-09-11T11:24:18.103Z,19.20
2022-09-11T11:27:18.887Z,19.60
2022-09-11T11:30:13.063Z,19.80
2022-09-11T11:33:07.010Z,20.00
2022-09-11T11:35:58.051Z,20.30
2022-09-11T11:38:49.229Z,20.20
2022-09-11T11:41:45.060Z,20.10
2022-09-11T11:44:35.289Z,20.00
2022-09-11T11:47:26.490Z,20.00
2022-09-11T11:50:18.719Z,20.00
2022-09-11T11:53:14.394Z,20.20
2022-09-11T11:56:06.010Z,20.20
2022-09-11T11:58:55.056Z,20.10
2022-09-11T12:01:44.111Z,20.10
2022-09-11T12:04:42.485Z,20.30
2022-09-11T12:07:31.836Z,20.50
2022-09-11T12:10:24.605Z,20.70
2022-09-11T12:13:18.329Z,20.80
2022-09-11T12:16:11.705Z,20.90
2022-09-11T12:19:15.629Z,21.10
2022-09-11T12:22:13.131Z,21.00
2022-09-11T12:25:00.633Z,21.10
2022-09-11T12:27:55.141Z,21.10
2022-09-11T12:30:59.500Z,21.00
2022-09-11T12:34:09.390Z,21.30
2022-09-11T12:37:00.890Z,21.10
2022-09-11T12:39:53.578Z,21.10
2022-09-11T12:42:48.575Z,21.10
2022-09-11T12:45:38.609Z,21.20
2022-09-11T12:48:33.800Z,21.30
2022-09-11T12:51:24.591Z,21.30
2022-09-11T12:54:15.009Z,21.30
2022-09-11T12:57:05.866Z,21.30
2022-09-11T12:59:59.557Z,21.30
2022-09-11T13:02:53.069Z,21.10
2022-09-11T13:05:43.316Z,21.10
2022-09-11T13:08:34.757Z,21.00
2022-09-11T13:11:42.433Z,20.70
2022-09-11T13:14:49.235Z,20.60
2022-09-11T13:17:47.183Z,20.50
2022-09-11T13:20:42.515Z,20.50
2022-09-11T13:23:30.752Z,20.80
2022-09-11T13:26:24.293Z,21.20
2022-09-11T13:29:14.630Z,21.60
2022-09-11T13:32:12.605Z,21.60
2022-09-11T13:35:04.721Z,21.90
2022-09-11T13:38:06.466Z,22.10
2022-09-11T13:41:00.024Z,22.40
2022-09-11T13:43:54.250Z,23.20
2022-09-11T13:46:53.021Z,22.00
2022-09-11T13:49:44.646Z,22.00
2022-09-11T13:52:34.949Z,22.00
2022-09-11T13:55:29.114Z,22.10
2022-09-11T13:58:26.632Z,22.20
2022-09-11T14:01:16.982Z,22.40
2022-09-11T14:04:06.498Z,22.50
2022-09-11T14:06:56.751Z,23.50
2022-09-11T14:09:49.729Z,22.50
2022-09-11T14:12:47.780Z,22.60
2022-09-11T14:15:40.380Z,22.70
2022-09-11T14:18:35.804Z,22.80
2022-09-11T14:21:28.752Z,22.80
2022-09-11T14:24:30.162Z,22.70
2022-09-11T14:27:36.739Z,22.80
2022-09-11T14:30:31.520Z,22.90
2022-09-11T14:33:27.286Z,23.10
2022-09-11T14:36:18.939Z,23.30
2022-09-11T14:39:07.077Z,23.40
2022-09-11T14:41:56.460Z,23.60
2022-09-11T14:44:45.082Z,23.50
2022-09-11T14:47:32.777Z,23.40
2022-09-11T14:50:21.354Z,23.40
2022-09-11T14:53:15.117Z,23.30
2022-09-11T14:56:05.209Z,23.30
2022-09-11T14:58:54.765Z,23.30
2022-09-11T15:01:43.676Z,23.00
2022-09-11T15:04:31.993Z,22.90
2022-09-11T15:07:21.907Z,22.80
2022-09-11T15:10:15.183Z,23.20
2022-09-11T15:13:07.687Z,23.00
2022-09-11T15:15:56.914Z,23.00
2022-09-11T15:18:45.467Z,22.90
2022-09-11T15:21:37.487Z,22.90
2022-09-11T15:24:45.693Z,22.90
2022-09-11T15:27:33.900Z,23.10
2022-09-11T15:30:25.954Z,23.10
2022-09-11T15:33:16.568Z,23.10
2022-09-11T15:36:08.298Z,23.00
2022-09-11T15:38:56.514Z,23.10
2022-09-11T15:41:44.770Z,22.90
2022-09-11T15:44:36.105Z,22.90
2022-09-11T15:47:25.970Z,23.00
2022-09-11T15:50:18.318Z,22.90
2022-09-11T15:53:06.404Z,22.80
2022-09-11T15:56:03.234Z,22.80
2022-09-11T15:58:52.727Z,22.60
2022-09-11T16:01:43.366Z,22.60
2022-09-11T16:04:36.517Z,22.60
2022-09-11T16:07:27.240Z,22.50
2022-09-11T16:10:15.105Z,22.50
2022-09-11T16:13:04.945Z,22.40
2022-09-11T16:16:04.653Z,22.50
2022-09-11T16:18:53.452Z,22.40
2022-09-11T16:21:41.284Z,22.40
2022-09-11T16:24:37.615Z,22.30
2022-09-11T16:27:26.014Z,22.60
2022-09-11T16:33:24.876Z,22.30
2022-09-11T16:36:17.242Z,22.30
2022-09-11T16:39:09.470Z,22.30
2022-09-11T16:42:00.531Z,23.00
2022-09-11T16:44:49.955Z,22.00
2022-09-11T16:47:40.733Z,22.10
2022-09-11T16:50:32.399Z,21.90
2022-09-11T16:53:26.207Z,21.70
2022-09-11T16:56:18.569Z,21.70
2022-09-11T16:59:08.507Z,21.70
2022-09-11T17:01:58.938Z,21.60
2022-09-11T17:04:47.071Z,21.60
2022-09-11T17:07:35.613Z,21.40
2022-09-11T17:10:26.011Z,21.30
2022-09-11T17:13:17.468Z,21.20
2022-09-11T17:16:11.574Z,21.10
2022-09-11T17:19:05.938Z,21.00
2022-09-11T17:21:56.955Z,20.80
2022-09-11T17:24:46.964Z,21.70
2022-09-11T17:27:36.408Z,20.70
2022-09-11T17:30:24.611Z,20.60
2022-09-11T17:33:13.490Z,20.50
2022-09-11T17:36:08.338Z,20.60
2022-09-11T17:38:58.817Z,20.40
2022-09-11T17:41:47.403Z,20.20
2022-09-11T17:44:35.203Z,20.10
2022-09-11T17:47:23.291Z,19.90
2022-09-11T17:50:14.046Z,19.90
2022-09-11T17:53:05.203Z,19.70
2022-09-11T17:55:53.837Z,19.50
2022-09-11T17:58:45.046Z,19.30
2022-09-11T18:01:33.536Z,20.50
2022-09-11T18:04:21.592Z,18.90
2022-09-11T18:07:10.904Z,18.80
2022-09-11T18:09:59.157Z,18.70
2022-09-11T18:12:51.928Z,18.50
2022-09-11T18:15:44.183Z,18.60
2022-09-11T18:18:33.321Z,18.40
2022-09-11T18:21:22.939Z,18.20
2022-09-11T18:24:20.666Z,18.00
2022-09-11T18:27:09.970Z,17.90
2022-09-11T18:29:59.859Z,17.90
2022-09-11T18:32:50.669Z,17.80
2022-09-11T18:35:39.521Z,17.80
2022-09-11T18:38:32.908Z,17.70
2022-09-11T18:41:26.267Z,17.60
2022-09-11T18:44:19.397Z,17.70
2022-09-11T18:47:11.868Z,17.60
2022-09-11T18:50:01.203Z,17.60
2022-09-11T18:52:51.072Z,17.50
2022-09-11T18:55:39.100Z,17.50
2022-09-11T18:58:28.729Z,17.50
2022-09-11T19:01:21.136Z,17.80
2022-09-11T19:04:10.238Z,17.30
2022-09-11T19:07:00.205Z,17.20
2022-09-11T19:09:54.240Z,17.30
2022-09-11T19:12:42.845Z,17.10
2022-09-11T19:15:33.624Z,17.00
2022-09-11T19:18:22.612Z,16.90
2022-09-11T19:21:12.563Z,16.90
2022-09-11T19:24:02.235Z,16.80
2022-09-11T19:26:52.453Z,16.70
2022-09-11T19:29:40.638Z,16.70
2022-09-11T19:32:29.427Z,16.60
2022-09-11T19:35:18.223Z,16.50
2022-09-11T19:38:05.416Z,16.50
2022-09-11T19:40:53.687Z,16.40
2022-09-11T19:43:42.448Z,16.30
2022-09-11T19:46:33.287Z,16.20
2022-09-11T19:49:22.204Z,16.20
2022-09-11T19:52:11.918Z,16.10
2022-09-11T19:55:00.451Z,16.00
2022-09-11T19:57:48.860Z,16.10
2022-09-11T20:00:41.827Z,15.90
2022-09-11T20:03:29.782Z,15.90
2022-09-11T20:06:20.722Z,15.90
2022-09-11T20:12:16.717Z,15.90
2022-09-11T20:15:04.459Z,15.80
2022-09-11T20:17:53.414Z,15.80
2022-09-11T20:20:45.301Z,15.80
2022-09-11T20:23:35.787Z,15.70
2022-09-11T20:26:25.044Z,15.70
2022-09-11T20:29:14.522Z,15.60
2022-09-11T20:32:03.268Z,15.60
2022-09-11T20:34:51.592Z,15.60
2022-09-11T20:37:39.969Z,15.50
2022-09-11T20:40:32.023Z,15.30
2022-09-11T20:43:19.805Z,15.10
2022-09-11T20:46:08.173Z,15.20
2022-09-11T20:48:56.386Z,15.20
2022-09-11T20:51:44.065Z,15.10
2022-09-11T20:54:31.685Z,15.00
2022-09-11T20:57:20.363Z,15.00
2022-09-11T21:00:08.780Z,15.00
2022-09-11T21:02:57.325Z,14.90
2022-09-11T21:05:44.935Z,14.90
2022-09-11T21:08:32.808Z,14.90
2022-09-11T21:11:20.916Z,14.80
2022-09-11T21:14:11.343Z,14.80
2022-09-11T21:16:59.476Z,14.90
2022-09-11T21:19:47.231Z,14.70
2022-09-11T21:22:35.376Z,14.60
2022-09-11T21:25:23.204Z,14.60
2022-09-11T21:28:11.495Z,14.60
2022-09-11T21:31:01.013Z,14.50
2022-09-11T21:33:48.747Z,14.40
2022-09-11T21:36:37.230Z,14.40
2022-09-11T21:39:24.757Z,14.30
2022-09-11T21:42:14.815Z,14.30
2022-09-11T21:45:02.069Z,14.20
2022-09-11T21:47:51.236Z,14.20
2022-09-11T21:50:40.300Z,14.20
2022-09-11T21:53:28.068Z,14.20
2022-09-11T21:56:22.422Z,14.10
2022-09-11T21:59:10.638Z,14.20
2022-09-11T22:01:57.998Z,14.10
2022-09-11T22:04:47.199Z,14.10
2022-09-11T22:07:34.963Z,14.10
2022-09-11T22:10:24.029Z,14.10
2022-09-11T22:13:11.661Z,14.10
2022-09-11T22:16:00.537Z,14.00
2022-09-11T22:18:49.082Z,13.90
2022-09-11T22:21:41.729Z,13.90
2022-09-11T22:24:29.251Z,13.80
2022-09-11T22:27:17.543Z,13.80
2022-09-11T22:30:07.581Z,13.60
2022-09-11T22:32:56.887Z,13.60
2022-09-11T22:35:49.286Z,13.60
2022-09-11T22:38:39.307Z,13.80
2022-09-11T22:41:28.072Z,13.70
2022-09-11T22:44:15.594Z,13.70
2022-09-11T22:47:03.327Z,13.70
2022-09-11T22:49:54.423Z,13.80
2022-09-11T22:52:43.007Z,13.80
2022-09-11T22:55:32.957Z,13.90
2022-09-11T22:58:20.730Z,13.90
2022-09-11T23:01:09.767Z,14.00
2022-09-11T23:03:56.988Z,14.10
2022-09-11T23:07:02.017Z,13.90
2022-09-11T23:09:50.334Z,14.00
2022-09-11T23:12:40.253Z,14.00
2022-09-11T23:15:28.788Z,14.00
2022-09-11T23:18:16.345Z,14.10
2022-09-11T23:21:04.791Z,14.00
2022-09-11T23:23:54.749Z,14.00
2022-09-11T23:26:43.526Z,13.80
2022-09-11T23:29:35.686Z,13.90
2022-09-11T23:32:24.039Z,13.90
2022-09-11T23:35:12.123Z,13.80
2022-09-11T23:38:00.568Z,13.90
2022-09-11T23:40:48.434Z,13.90
2022-09-11T23:43:35.805Z,13.90
2022-09-11T23:46:25.595Z,13.80
2022-09-11T23:49:14.031Z,13.70
2022-09-11T23:52:04.812Z,13.60
2022-09-11T23:54:53.044Z,13.60
2022-09-11T23:57:43.547Z,13.50
